sensor_id;sensor_type;location;lat;lon;timestamp;P1;durP1;ratioP1;P2;durP2;ratioP2
52136;SDS011;69622;49.570;10.986;2023-06-14T00:00:19;9.43;;;5.78;;
52136;SDS011;69622;49.570;10.986;2023-06-14T00:03:21;6.10;;;5.50;;
52136;SDS011;69622;49.570;10.986;2023-06-14T00:06:23;9.00;;;5.82;;
52136;SDS011;69622;49.570;10.986;2023-06-14T00:09:25;7.55;;;5.57;;
52136;SDS011;69622;49.570;10.986;2023-06-14T00:12:27;7.57;;;5.40;;
52136;SDS011;69622;49.570;10.986;2023-06-14T00:15:28;7.22;;;5.20;;
52136;SDS011;69622;49.570;10.986;2023-06-14T00:18:30;8.48;;;5.55;;
52136;SDS011;69622;49.570;10.986;2023-06-14T00:21:32;10.25;;;5.32;;
52136;SDS011;69622;49.570;10.986;2023-06-14T00:24:33;8.15;;;5.45;;
52136;SDS011;69622;49.570;10.986;2023-06-14T00:27:35;6.28;;;5.65;;
52136;SDS011;69622;49.570;10.986;2023-06-14T00:30:36;8.15;;;5.32;;
52136;SDS011;69622;49.570;10.986;2023-06-14T00:33:38;10.23;;;5.40;;
52136;SDS011;69622;49.570;10.986;2023-06-14T00:36:39;7.43;;;5.20;;
52136;SDS011;69622;49.570;10.986;2023-06-14T00:39:41;9.77;;;5.40;;
52136;SDS011;69622;49.570;10.986;2023-06-14T00:42:42;8.80;;;5.90;;
52136;SDS011;69622;49.570;10.986;2023-06-14T00:45:43;8.32;;;5.78;;
52136;SDS011;69622;49.570;10.986;2023-06-14T00:48:45;9.43;;;6.47;;
52136;SDS011;69622;49.570;10.986;2023-06-14T00:51:49;7.05;;;5.38;;
52136;SDS011;69622;49.570;10.986;2023-06-14T00:54:50;6.00;;;5.40;;
52136;SDS011;69622;49.570;10.986;2023-06-14T00:57:52;7.13;;;5.45;;
52136;SDS011;69622;49.570;10.986;2023-06-14T01:00:54;7.45;;;5.15;;
52136;SDS011;69622;49.570;10.986;2023-06-14T01:03:56;13.77;;;5.72;;
52136;SDS011;69622;49.570;10.986;2023-06-14T01:07:10;7.53;;;4.80;;
52136;SDS011;69622;49.570;10.986;2023-06-14T01:10:35;8.65;;;5.15;;
52136;SDS011;69622;49.570;10.986;2023-06-14T01:13:46;7.18;;;5.28;;
52136;SDS011;69622;49.570;10.986;2023-06-14T01:16:48;6.72;;;5.80;;
52136;SDS011;69622;49.570;10.986;2023-06-14T01:19:54;5.55;;;5.03;;
52136;SDS011;69622;49.570;10.986;2023-06-14T01:22:59;5.65;;;5.00;;
52136;SDS011;69622;49.570;10.986;2023-06-14T01:26:01;12.70;;;5.03;;
52136;SDS011;69622;49.570;10.986;2023-06-14T01:29:04;5.65;;;4.53;;
52136;SDS011;69622;49.570;10.986;2023-06-14T01:32:07;5.07;;;4.57;;
52136;SDS011;69622;49.570;10.986;2023-06-14T01:35:09;5.75;;;4.95;;
52136;SDS011;69622;49.570;10.986;2023-06-14T01:38:10;9.02;;;4.93;;
52136;SDS011;69622;49.570;10.986;2023-06-14T01:41:14;8.48;;;5.55;;
52136;SDS011;69622;49.570;10.986;2023-06-14T01:44:17;6.10;;;5.50;;
52136;SDS011;69622;49.570;10.986;2023-06-14T01:47:20;11.05;;;5.60;;
52136;SDS011;69622;49.570;10.986;2023-06-14T01:50:22;10.43;;;5.70;;
52136;SDS011;69622;49.570;10.986;2023-06-14T01:53:24;6.95;;;5.35;;
52136;SDS011;69622;49.570;10.986;2023-06-14T01:56:25;6.38;;;4.97;;
52136;SDS011;69622;49.570;10.986;2023-06-14T01:59:27;5.88;;;5.25;;
52136;SDS011;69622;49.570;10.986;2023-06-14T02:02:29;9.93;;;5.43;;
52136;SDS011;69622;49.570;10.986;2023-06-14T02:05:30;7.57;;;5.35;;
52136;SDS011;69622;49.570;10.986;2023-06-14T02:08:32;6.18;;;5.22;;
52136;SDS011;69622;49.570;10.986;2023-06-14T02:11:33;10.27;;;5.30;;
52136;SDS011;69622;49.570;10.986;2023-06-14T02:14:35;6.70;;;5.30;;
52136;SDS011;69622;49.570;10.986;2023-06-14T02:17:36;8.88;;;5.50;;
52136;SDS011;69622;49.570;10.986;2023-06-14T02:20:38;7.35;;;5.75;;
52136;SDS011;69622;49.570;10.986;2023-06-14T02:23:40;7.28;;;5.35;;
52136;SDS011;69622;49.570;10.986;2023-06-14T02:26:41;8.00;;;5.90;;
52136;SDS011;69622;49.570;10.986;2023-06-14T02:29:43;10.57;;;7.22;;
52136;SDS011;69622;49.570;10.986;2023-06-14T02:32:44;7.72;;;5.47;;
52136;SDS011;69622;49.570;10.986;2023-06-14T02:35:46;6.47;;;5.10;;
52136;SDS011;69622;49.570;10.986;2023-06-14T02:38:48;5.63;;;5.10;;
52136;SDS011;69622;49.570;10.986;2023-06-14T02:41:50;5.38;;;4.82;;
52136;SDS011;69622;49.570;10.986;2023-06-14T02:44:51;8.40;;;5.43;;
52136;SDS011;69622;49.570;10.986;2023-06-14T02:47:53;9.05;;;4.88;;
52136;SDS011;69622;49.570;10.986;2023-06-14T02:50:54;5.93;;;4.78;;
52136;SDS011;69622;49.570;10.986;2023-06-14T02:53:57;6.63;;;4.75;;
52136;SDS011;69622;49.570;10.986;2023-06-14T02:56:58;10.13;;;5.53;;
52136;SDS011;69622;49.570;10.986;2023-06-14T03:00:00;8.27;;;5.40;;
52136;SDS011;69622;49.570;10.986;2023-06-14T03:03:01;9.80;;;6.80;;
52136;SDS011;69622;49.570;10.986;2023-06-14T03:06:03;8.25;;;5.20;;
52136;SDS011;69622;49.570;10.986;2023-06-14T03:09:06;8.43;;;4.63;;
52136;SDS011;69622;49.570;10.986;2023-06-14T03:12:08;9.00;;;5.55;;
52136;SDS011;69622;49.570;10.986;2023-06-14T03:15:10;6.43;;;4.50;;
52136;SDS011;69622;49.570;10.986;2023-06-14T03:18:14;9.70;;;5.25;;
52136;SDS011;69622;49.570;10.986;2023-06-14T03:21:16;7.53;;;5.05;;
52136;SDS011;69622;49.570;10.986;2023-06-14T03:24:17;6.45;;;4.57;;
52136;SDS011;69622;49.570;10.986;2023-06-14T03:27:19;7.00;;;5.10;;
52136;SDS011;69622;49.570;10.986;2023-06-14T03:30:21;5.60;;;4.60;;
52136;SDS011;69622;49.570;10.986;2023-06-14T03:33:24;7.03;;;5.35;;
52136;SDS011;69622;49.570;10.986;2023-06-14T03:36:26;8.07;;;5.25;;
52136;SDS011;69622;49.570;10.986;2023-06-14T03:39:29;6.97;;;5.25;;
52136;SDS011;69622;49.570;10.986;2023-06-14T03:42:30;8.13;;;5.50;;
52136;SDS011;69622;49.570;10.986;2023-06-14T03:45:31;6.75;;;4.75;;
52136;SDS011;69622;49.570;10.986;2023-06-14T03:48:33;10.57;;;5.13;;
52136;SDS011;69622;49.570;10.986;2023-06-14T03:51:34;7.38;;;4.93;;
52136;SDS011;69622;49.570;10.986;2023-06-14T03:54:36;6.65;;;5.53;;
52136;SDS011;69622;49.570;10.986;2023-06-14T03:57:41;8.25;;;5.43;;
52136;SDS011;69622;49.570;10.986;2023-06-14T04:00:42;9.57;;;5.22;;
52136;SDS011;69622;49.570;10.986;2023-06-14T04:03:44;6.43;;;4.65;;
52136;SDS011;69622;49.570;10.986;2023-06-14T04:06:46;6.20;;;5.20;;
52136;SDS011;69622;49.570;10.986;2023-06-14T04:09:49;8.48;;;4.97;;
52136;SDS011;69622;49.570;10.986;2023-06-14T04:12:51;8.85;;;5.00;;
52136;SDS011;69622;49.570;10.986;2023-06-14T04:15:53;10.23;;;5.88;;
52136;SDS011;69622;49.570;10.986;2023-06-14T04:18:55;6.18;;;4.85;;
52136;SDS011;69622;49.570;10.986;2023-06-14T04:21:57;6.90;;;5.60;;
52136;SDS011;69622;49.570;10.986;2023-06-14T04:25:00;6.78;;;5.60;;
52136;SDS011;69622;49.570;10.986;2023-06-14T04:28:06;6.28;;;5.47;;
52136;SDS011;69622;49.570;10.986;2023-06-14T04:31:10;9.43;;;5.40;;
52136;SDS011;69622;49.570;10.986;2023-06-14T04:34:12;6.85;;;5.60;;
52136;SDS011;69622;49.570;10.986;2023-06-14T04:37:18;7.65;;;5.13;;
52136;SDS011;69622;49.570;10.986;2023-06-14T04:40:20;10.68;;;5.28;;
52136;SDS011;69622;49.570;10.986;2023-06-14T04:43:21;8.18;;;4.72;;
52136;SDS011;69622;49.570;10.986;2023-06-14T04:46:28;10.23;;;5.35;;
52136;SDS011;69622;49.570;10.986;2023-06-14T04:49:31;9.25;;;5.45;;
52136;SDS011;69622;49.570;10.986;2023-06-14T04:52:33;7.63;;;5.70;;
52136;SDS011;69622;49.570;10.986;2023-06-14T04:55:36;7.95;;;5.07;;
52136;SDS011;69622;49.570;10.986;2023-06-14T04:58:38;6.70;;;5.05;;
52136;SDS011;69622;49.570;10.986;2023-06-14T05:01:40;8.95;;;5.32;;
52136;SDS011;69622;49.570;10.986;2023-06-14T05:04:42;6.93;;;4.85;;
52136;SDS011;69622;49.570;10.986;2023-06-14T05:07:43;7.90;;;5.13;;
52136;SDS011;69622;49.570;10.986;2023-06-14T05:10:45;7.05;;;5.22;;
52136;SDS011;69622;49.570;10.986;2023-06-14T05:13:46;6.28;;;5.38;;
52136;SDS011;69622;49.570;10.986;2023-06-14T05:16:48;6.25;;;4.95;;
52136;SDS011;69622;49.570;10.986;2023-06-14T05:19:50;7.25;;;5.13;;
52136;SDS011;69622;49.570;10.986;2023-06-14T05:22:52;8.05;;;5.18;;
52136;SDS011;69622;49.570;10.986;2023-06-14T05:25:54;10.40;;;4.85;;
52136;SDS011;69622;49.570;10.986;2023-06-14T05:28:56;10.27;;;5.35;;
52136;SDS011;69622;49.570;10.986;2023-06-14T05:31:58;8.90;;;4.63;;
52136;SDS011;69622;49.570;10.986;2023-06-14T05:38:07;7.07;;;4.78;;
52136;SDS011;69622;49.570;10.986;2023-06-14T05:41:09;6.55;;;5.07;;
52136;SDS011;69622;49.570;10.986;2023-06-14T05:44:10;12.43;;;6.43;;
52136;SDS011;69622;49.570;10.986;2023-06-14T05:47:12;5.82;;;4.22;;
52136;SDS011;69622;49.570;10.986;2023-06-14T05:50:14;5.18;;;4.40;;
52136;SDS011;69622;49.570;10.986;2023-06-14T05:53:15;8.30;;;5.28;;
52136;SDS011;69622;49.570;10.986;2023-06-14T05:56:17;5.35;;;4.75;;
52136;SDS011;69622;49.570;10.986;2023-06-14T05:59:19;7.20;;;5.40;;
52136;SDS011;69622;49.570;10.986;2023-06-14T06:02:20;7.60;;;5.28;;
52136;SDS011;69622;49.570;10.986;2023-06-14T06:05:22;8.07;;;6.05;;
52136;SDS011;69622;49.570;10.986;2023-06-14T06:08:23;8.43;;;5.18;;
52136;SDS011;69622;49.570;10.986;2023-06-14T06:11:25;7.18;;;5.25;;
52136;SDS011;69622;49.570;10.986;2023-06-14T06:14:30;5.45;;;4.95;;
52136;SDS011;69622;49.570;10.986;2023-06-14T06:17:32;6.90;;;4.55;;
52136;SDS011;69622;49.570;10.986;2023-06-14T06:20:53;6.45;;;4.95;;
52136;SDS011;69622;49.570;10.986;2023-06-14T06:24:01;10.48;;;5.30;;
52136;SDS011;69622;49.570;10.986;2023-06-14T06:27:13;7.30;;;5.05;;
52136;SDS011;69622;49.570;10.986;2023-06-14T06:30:15;9.35;;;4.93;;
52136;SDS011;69622;49.570;10.986;2023-06-14T06:33:17;8.98;;;4.70;;
52136;SDS011;69622;49.570;10.986;2023-06-14T06:36:18;7.38;;;4.43;;
52136;SDS011;69622;49.570;10.986;2023-06-14T06:39:20;5.90;;;4.78;;
52136;SDS011;69622;49.570;10.986;2023-06-14T06:42:21;7.20;;;5.32;;
52136;SDS011;69622;49.570;10.986;2023-06-14T06:45:24;8.23;;;5.00;;
52136;SDS011;69622;49.570;10.986;2023-06-14T06:48:26;6.38;;;4.60;;
52136;SDS011;69622;49.570;10.986;2023-06-14T06:51:27;7.05;;;4.28;;
52136;SDS011;69622;49.570;10.986;2023-06-14T06:54:29;5.53;;;4.50;;
52136;SDS011;69622;49.570;10.986;2023-06-14T06:57:30;6.85;;;4.38;;
52136;SDS011;69622;49.570;10.986;2023-06-14T07:00:32;10.02;;;4.63;;
52136;SDS011;69622;49.570;10.986;2023-06-14T07:03:33;7.38;;;4.18;;
52136;SDS011;69622;49.570;10.986;2023-06-14T07:06:35;7.72;;;4.18;;
52136;SDS011;69622;49.570;10.986;2023-06-14T07:09:37;6.75;;;4.22;;
52136;SDS011;69622;49.570;10.986;2023-06-14T07:12:38;5.85;;;4.70;;
52136;SDS011;69622;49.570;10.986;2023-06-14T07:15:40;5.55;;;4.57;;
52136;SDS011;69622;49.570;10.986;2023-06-14T07:18:42;6.57;;;3.70;;
52136;SDS011;69622;49.570;10.986;2023-06-14T07:21:43;5.90;;;4.03;;
52136;SDS011;69622;49.570;10.986;2023-06-14T07:24:45;6.20;;;3.92;;
52136;SDS011;69622;49.570;10.986;2023-06-14T07:27:46;5.57;;;4.90;;
52136;SDS011;69622;49.570;10.986;2023-06-14T07:30:48;8.13;;;4.05;;
52136;SDS011;69622;49.570;10.986;2023-06-14T07:33:49;5.00;;;4.35;;
52136;SDS011;69622;49.570;10.986;2023-06-14T07:36:51;9.50;;;3.80;;
52136;SDS011;69622;49.570;10.986;2023-06-14T07:39:53;4.68;;;4.13;;
52136;SDS011;69622;49.570;10.986;2023-06-14T07:42:54;7.65;;;4.47;;
52136;SDS011;69622;49.570;10.986;2023-06-14T07:45:56;5.03;;;4.00;;
52136;SDS011;69622;49.570;10.986;2023-06-14T07:49:08;5.15;;;4.00;;
52136;SDS011;69622;49.570;10.986;2023-06-14T07:52:09;4.95;;;3.78;;
52136;SDS011;69622;49.570;10.986;2023-06-14T07:55:12;7.63;;;4.53;;
52136;SDS011;69622;49.570;10.986;2023-06-14T07:58:15;6.03;;;4.15;;
52136;SDS011;69622;49.570;10.986;2023-06-14T08:01:16;6.40;;;4.28;;
52136;SDS011;69622;49.570;10.986;2023-06-14T08:04:18;6.82;;;4.20;;
52136;SDS011;69622;49.570;10.986;2023-06-14T08:07:19;8.40;;;4.00;;
52136;SDS011;69622;49.570;10.986;2023-06-14T08:10:21;8.50;;;4.25;;
52136;SDS011;69622;49.570;10.986;2023-06-14T08:13:23;9.43;;;4.38;;
52136;SDS011;69622;49.570;10.986;2023-06-14T08:16:25;5.10;;;3.92;;
52136;SDS011;69622;49.570;10.986;2023-06-14T08:19:26;9.73;;;4.40;;
52136;SDS011;69622;49.570;10.986;2023-06-14T08:22:28;5.50;;;4.20;;
52136;SDS011;69622;49.570;10.986;2023-06-14T08:25:33;4.38;;;3.58;;
52136;SDS011;69622;49.570;10.986;2023-06-14T08:28:37;5.45;;;4.18;;
52136;SDS011;69622;49.570;10.986;2023-06-14T08:31:38;6.35;;;4.18;;
52136;SDS011;69622;49.570;10.986;2023-06-14T08:34:39;5.57;;;4.10;;
52136;SDS011;69622;49.570;10.986;2023-06-14T08:37:47;5.55;;;3.70;;
52136;SDS011;69622;49.570;10.986;2023-06-14T08:40:50;5.82;;;3.38;;
52136;SDS011;69622;49.570;10.986;2023-06-14T08:43:53;10.35;;;4.97;;
52136;SDS011;69622;49.570;10.986;2023-06-14T08:46:59;7.05;;;3.72;;
52136;SDS011;69622;49.570;10.986;2023-06-14T08:50:01;5.68;;;4.20;;
52136;SDS011;69622;49.570;10.986;2023-06-14T08:53:10;6.00;;;3.65;;
52136;SDS011;69622;49.570;10.986;2023-06-14T08:56:14;7.88;;;3.60;;
52136;SDS011;69622;49.570;10.986;2023-06-14T08:59:16;8.05;;;4.13;;
52136;SDS011;69622;49.570;10.986;2023-06-14T09:02:19;8.57;;;4.10;;
52136;SDS011;69622;49.570;10.986;2023-06-14T09:05:26;6.00;;;4.20;;
52136;SDS011;69622;49.570;10.986;2023-06-14T09:08:29;6.45;;;3.58;;
52136;SDS011;69622;49.570;10.986;2023-06-14T09:11:31;8.23;;;4.18;;
52136;SDS011;69622;49.570;10.986;2023-06-14T09:14:33;7.38;;;4.07;;
52136;SDS011;69622;49.570;10.986;2023-06-14T09:17:36;5.97;;;3.80;;
52136;SDS011;69622;49.570;10.986;2023-06-14T09:20:38;4.70;;;3.67;;
52136;SDS011;69622;49.570;10.986;2023-06-14T09:23:40;4.30;;;3.90;;
52136;SDS011;69622;49.570;10.986;2023-06-14T09:26:42;5.55;;;3.97;;
52136;SDS011;69622;49.570;10.986;2023-06-14T09:29:44;6.00;;;3.88;;
52136;SDS011;69622;49.570;10.986;2023-06-14T09:32:45;4.82;;;4.10;;
52136;SDS011;69622;49.570;10.986;2023-06-14T09:35:50;11.73;;;4.13;;
52136;SDS011;69622;49.570;10.986;2023-06-14T09:41:58;4.65;;;4.22;;
52136;SDS011;69622;49.570;10.986;2023-06-14T09:44:59;9.05;;;4.45;;
52136;SDS011;69622;49.570;10.986;2023-06-14T09:48:01;6.47;;;4.18;;
52136;SDS011;69622;49.570;10.986;2023-06-14T09:51:11;7.38;;;3.75;;
52136;SDS011;69622;49.570;10.986;2023-06-14T09:54:16;5.75;;;3.58;;
52136;SDS011;69622;49.570;10.986;2023-06-14T09:57:23;3.95;;;3.55;;
52136;SDS011;69622;49.570;10.986;2023-06-14T10:00:25;5.30;;;3.85;;
52136;SDS011;69622;49.570;10.986;2023-06-14T10:03:28;6.07;;;4.07;;
52136;SDS011;69622;49.570;10.986;2023-06-14T10:06:45;6.63;;;3.95;;
52136;SDS011;69622;49.570;10.986;2023-06-14T10:09:47;4.45;;;3.08;;
52136;SDS011;69622;49.570;10.986;2023-06-14T10:12:51;6.28;;;3.85;;
52136;SDS011;69622;49.570;10.986;2023-06-14T10:16:07;5.78;;;3.30;;
52136;SDS011;69622;49.570;10.986;2023-06-14T10:19:18;6.00;;;3.90;;
52136;SDS011;69622;49.570;10.986;2023-06-14T10:22:37;7.70;;;4.05;;
52136;SDS011;69622;49.570;10.986;2023-06-14T10:25:49;7.90;;;4.13;;
52136;SDS011;69622;49.570;10.986;2023-06-14T10:29:06;7.97;;;3.65;;
52136;SDS011;69622;49.570;10.986;2023-06-14T10:32:09;6.88;;;3.63;;
52136;SDS011;69622;49.570;10.986;2023-06-14T10:35:15;4.53;;;4.07;;
52136;SDS011;69622;49.570;10.986;2023-06-14T10:38:19;8.55;;;3.70;;
52136;SDS011;69622;49.570;10.986;2023-06-14T10:41:34;6.90;;;3.50;;
52136;SDS011;69622;49.570;10.986;2023-06-14T10:44:38;5.80;;;3.63;;
52136;SDS011;69622;49.570;10.986;2023-06-14T10:47:41;6.63;;;3.37;;
52136;SDS011;69622;49.570;10.986;2023-06-14T10:50:42;5.10;;;3.63;;
52136;SDS011;69622;49.570;10.986;2023-06-14T10:53:46;4.35;;;3.60;;
52136;SDS011;69622;49.570;10.986;2023-06-14T10:56:50;5.88;;;4.15;;
52136;SDS011;69622;49.570;10.986;2023-06-14T10:59:52;7.63;;;3.70;;
52136;SDS011;69622;49.570;10.986;2023-06-14T11:06:22;5.07;;;3.47;;
52136;SDS011;69622;49.570;10.986;2023-06-14T11:09:39;5.18;;;3.47;;
52136;SDS011;69622;49.570;10.986;2023-06-14T11:13:07;3.90;;;3.20;;
52136;SDS011;69622;49.570;10.986;2023-06-14T11:16:16;5.75;;;3.47;;
52136;SDS011;69622;49.570;10.986;2023-06-14T11:19:21;5.55;;;3.65;;
52136;SDS011;69622;49.570;10.986;2023-06-14T11:22:22;4.10;;;3.38;;
52136;SDS011;69622;49.570;10.986;2023-06-14T11:25:24;8.77;;;3.78;;
52136;SDS011;69622;49.570;10.986;2023-06-14T11:28:40;7.78;;;3.67;;
52136;SDS011;69622;49.570;10.986;2023-06-14T11:31:45;4.45;;;3.67;;
52136;SDS011;69622;49.570;10.986;2023-06-14T11:34:47;8.43;;;3.83;;
52136;SDS011;69622;49.570;10.986;2023-06-14T11:37:52;4.65;;;3.78;;
52136;SDS011;69622;49.570;10.986;2023-06-14T11:40:58;5.55;;;3.80;;
52136;SDS011;69622;49.570;10.986;2023-06-14T11:44:01;7.63;;;3.50;;
52136;SDS011;69622;49.570;10.986;2023-06-14T11:47:04;5.38;;;3.40;;
52136;SDS011;69622;49.570;10.986;2023-06-14T11:50:06;5.18;;;3.17;;
52136;SDS011;69622;49.570;10.986;2023-06-14T11:53:09;5.45;;;3.25;;
52136;SDS011;69622;49.570;10.986;2023-06-14T11:56:11;6.78;;;3.42;;
52136;SDS011;69622;49.570;10.986;2023-06-14T11:59:15;5.50;;;3.08;;
52136;SDS011;69622;49.570;10.986;2023-06-14T12:02:17;4.15;;;3.53;;
52136;SDS011;69622;49.570;10.986;2023-06-14T12:05:20;7.03;;;3.45;;
52136;SDS011;69622;49.570;10.986;2023-06-14T12:08:22;4.88;;;3.33;;
52136;SDS011;69622;49.570;10.986;2023-06-14T12:11:39;3.88;;;3.40;;
52136;SDS011;69622;49.570;10.986;2023-06-14T12:14:41;5.28;;;3.40;;
52136;SDS011;69622;49.570;10.986;2023-06-14T12:17:43;3.72;;;3.40;;
52136;SDS011;69622;49.570;10.986;2023-06-14T12:20:49;3.85;;;3.10;;
52136;SDS011;69622;49.570;10.986;2023-06-14T12:23:51;6.22;;;3.63;;
52136;SDS011;69622;49.570;10.986;2023-06-14T12:26:54;4.13;;;3.20;;
52136;SDS011;69622;49.570;10.986;2023-06-14T12:29:58;5.97;;;3.40;;
52136;SDS011;69622;49.570;10.986;2023-06-14T12:33:04;3.55;;;2.92;;
52136;SDS011;69622;49.570;10.986;2023-06-14T12:36:07;4.78;;;3.63;;
52136;SDS011;69622;49.570;10.986;2023-06-14T12:39:10;3.85;;;3.35;;
52136;SDS011;69622;49.570;10.986;2023-06-14T12:42:11;5.75;;;2.90;;
52136;SDS011;69622;49.570;10.986;2023-06-14T12:45:15;4.00;;;3.35;;
52136;SDS011;69622;49.570;10.986;2023-06-14T12:48:17;5.50;;;3.35;;
52136;SDS011;69622;49.570;10.986;2023-06-14T12:51:19;4.97;;;2.83;;
52136;SDS011;69622;49.570;10.986;2023-06-14T12:54:20;3.30;;;2.97;;
52136;SDS011;69622;49.570;10.986;2023-06-14T12:57:40;3.67;;;3.28;;
52136;SDS011;69622;49.570;10.986;2023-06-14T13:00:42;4.88;;;3.10;;
52136;SDS011;69622;49.570;10.986;2023-06-14T13:03:44;5.10;;;3.35;;
52136;SDS011;69622;49.570;10.986;2023-06-14T13:06:45;3.53;;;3.15;;
52136;SDS011;69622;49.570;10.986;2023-06-14T13:09:47;3.55;;;3.25;;
52136;SDS011;69622;49.570;10.986;2023-06-14T13:12:48;4.13;;;3.35;;
52136;SDS011;69622;49.570;10.986;2023-06-14T13:15:50;3.67;;;3.30;;
52136;SDS011;69622;49.570;10.986;2023-06-14T13:18:51;4.75;;;3.20;;
52136;SDS011;69622;49.570;10.986;2023-06-14T13:21:53;6.50;;;3.22;;
52136;SDS011;69622;49.570;10.986;2023-06-14T13:24:54;5.45;;;3.33;;
52136;SDS011;69622;49.570;10.986;2023-06-14T13:27:56;4.15;;;3.00;;
52136;SDS011;69622;49.570;10.986;2023-06-14T13:30:57;5.18;;;3.28;;
52136;SDS011;69622;49.570;10.986;2023-06-14T13:33:59;4.10;;;2.70;;
52136;SDS011;69622;49.570;10.986;2023-06-14T13:37:00;5.05;;;2.90;;
52136;SDS011;69622;49.570;10.986;2023-06-14T13:40:02;8.38;;;3.40;;
52136;SDS011;69622;49.570;10.986;2023-06-14T13:43:03;3.55;;;3.20;;
52136;SDS011;69622;49.570;10.986;2023-06-14T13:46:05;4.03;;;2.92;;
52136;SDS011;69622;49.570;10.986;2023-06-14T13:49:07;5.68;;;3.92;;
52136;SDS011;69622;49.570;10.986;2023-06-14T13:52:09;5.35;;;3.63;;
52136;SDS011;69622;49.570;10.986;2023-06-14T13:55:11;5.72;;;2.70;;
52136;SDS011;69622;49.570;10.986;2023-06-14T13:58:12;4.00;;;3.05;;
52136;SDS011;69622;49.570;10.986;2023-06-14T14:01:15;5.63;;;3.20;;
52136;SDS011;69622;49.570;10.986;2023-06-14T14:04:19;4.13;;;2.90;;
52136;SDS011;69622;49.570;10.986;2023-06-14T14:07:21;4.97;;;3.15;;
52136;SDS011;69622;49.570;10.986;2023-06-14T14:10:24;5.30;;;2.88;;
52136;SDS011;69622;49.570;10.986;2023-06-14T14:13:26;3.67;;;3.20;;
52136;SDS011;69622;49.570;10.986;2023-06-14T14:16:39;4.70;;;3.03;;
52136;SDS011;69622;49.570;10.986;2023-06-14T14:19:41;4.22;;;3.20;;
52136;SDS011;69622;49.570;10.986;2023-06-14T14:22:43;6.32;;;2.88;;
52136;SDS011;69622;49.570;10.986;2023-06-14T14:25:44;6.80;;;3.15;;
52136;SDS011;69622;49.570;10.986;2023-06-14T14:28:45;3.13;;;2.83;;
52136;SDS011;69622;49.570;10.986;2023-06-14T14:31:47;6.28;;;3.65;;
52136;SDS011;69622;49.570;10.986;2023-06-14T14:34:49;3.40;;;3.10;;
52136;SDS011;69622;49.570;10.986;2023-06-14T14:37:50;9.93;;;2.97;;
52136;SDS011;69622;49.570;10.986;2023-06-14T14:40:54;3.33;;;3.03;;
52136;SDS011;69622;49.570;10.986;2023-06-14T14:43:58;3.13;;;2.83;;
52136;SDS011;69622;49.570;10.986;2023-06-14T14:47:01;5.60;;;2.83;;
52136;SDS011;69622;49.570;10.986;2023-06-14T14:50:04;4.25;;;2.80;;
52136;SDS011;69622;49.570;10.986;2023-06-14T14:53:11;3.38;;;2.80;;
52136;SDS011;69622;49.570;10.986;2023-06-14T14:56:13;4.78;;;3.03;;
52136;SDS011;69622;49.570;10.986;2023-06-14T14:59:14;4.18;;;2.92;;
52136;SDS011;69622;49.570;10.986;2023-06-14T15:02:16;3.10;;;2.80;;
52136;SDS011;69622;49.570;10.986;2023-06-14T15:05:18;4.85;;;3.20;;
52136;SDS011;69622;49.570;10.986;2023-06-14T15:08:19;5.55;;;2.65;;
52136;SDS011;69622;49.570;10.986;2023-06-14T15:11:21;4.93;;;2.55;;
52136;SDS011;69622;49.570;10.986;2023-06-14T15:14:22;6.38;;;2.97;;
52136;SDS011;69622;49.570;10.986;2023-06-14T15:17:24;4.32;;;3.10;;
52136;SDS011;69622;49.570;10.986;2023-06-14T15:20:26;4.05;;;3.05;;
52136;SDS011;69622;49.570;10.986;2023-06-14T15:23:28;3.45;;;3.15;;
52136;SDS011;69622;49.570;10.986;2023-06-14T15:26:30;5.95;;;2.85;;
52136;SDS011;69622;49.570;10.986;2023-06-14T15:29:32;3.35;;;2.95;;
52136;SDS011;69622;49.570;10.986;2023-06-14T15:32:34;4.35;;;3.38;;
52136;SDS011;69622;49.570;10.986;2023-06-14T15:35:36;3.28;;;2.97;;
52136;SDS011;69622;49.570;10.986;2023-06-14T15:38:41;4.05;;;3.17;;
52136;SDS011;69622;49.570;10.986;2023-06-14T15:41:42;4.47;;;3.58;;
52136;SDS011;69622;49.570;10.986;2023-06-14T15:44:44;3.58;;;3.28;;
52136;SDS011;69622;49.570;10.986;2023-06-14T15:47:45;4.72;;;2.70;;
52136;SDS011;69622;49.570;10.986;2023-06-14T15:50:47;4.43;;;2.50;;
52136;SDS011;69622;49.570;10.986;2023-06-14T15:53:50;3.83;;;2.72;;
52136;SDS011;69622;49.570;10.986;2023-06-14T15:56:53;3.25;;;2.95;;
52136;SDS011;69622;49.570;10.986;2023-06-14T15:59:54;2.75;;;2.55;;
52136;SDS011;69622;49.570;10.986;2023-06-14T16:02:56;2.97;;;2.67;;
52136;SDS011;69622;49.570;10.986;2023-06-14T16:06:05;3.25;;;2.85;;
52136;SDS011;69622;49.570;10.986;2023-06-14T16:09:07;3.28;;;2.97;;
52136;SDS011;69622;49.570;10.986;2023-06-14T16:12:09;2.33;;;2.08;;
52136;SDS011;69622;49.570;10.986;2023-06-14T16:15:11;4.13;;;2.78;;
52136;SDS011;69622;49.570;10.986;2023-06-14T16:18:19;4.07;;;2.40;;
52136;SDS011;69622;49.570;10.986;2023-06-14T16:21:21;3.00;;;2.70;;
52136;SDS011;69622;49.570;10.986;2023-06-14T16:24:22;3.60;;;2.78;;
52136;SDS011;69622;49.570;10.986;2023-06-14T16:27:24;2.70;;;2.50;;
52136;SDS011;69622;49.570;10.986;2023-06-14T16:30:26;3.92;;;2.78;;
52136;SDS011;69622;49.570;10.986;2023-06-14T16:33:27;5.47;;;2.63;;
52136;SDS011;69622;49.570;10.986;2023-06-14T16:36:28;3.13;;;2.30;;
52136;SDS011;69622;49.570;10.986;2023-06-14T16:39:30;4.88;;;3.28;;
52136;SDS011;69622;49.570;10.986;2023-06-14T16:42:31;3.75;;;2.95;;
52136;SDS011;69622;49.570;10.986;2023-06-14T16:45:33;5.45;;;2.63;;
52136;SDS011;69622;49.570;10.986;2023-06-14T16:48:35;2.75;;;2.53;;
52136;SDS011;69622;49.570;10.986;2023-06-14T16:51:37;3.58;;;2.55;;
52136;SDS011;69622;49.570;10.986;2023-06-14T16:54:38;2.85;;;2.40;;
52136;SDS011;69622;49.570;10.986;2023-06-14T16:57:40;4.07;;;2.63;;
52136;SDS011;69622;49.570;10.986;2023-06-14T17:00:41;4.47;;;2.72;;
52136;SDS011;69622;49.570;10.986;2023-06-14T17:03:43;4.07;;;2.40;;
52136;SDS011;69622;49.570;10.986;2023-06-14T17:06:44;4.20;;;2.60;;
52136;SDS011;69622;49.570;10.986;2023-06-14T17:09:46;2.63;;;2.38;;
52136;SDS011;69622;49.570;10.986;2023-06-14T17:12:48;4.30;;;2.78;;
52136;SDS011;69622;49.570;10.986;2023-06-14T17:15:51;3.13;;;2.65;;
52136;SDS011;69622;49.570;10.986;2023-06-14T17:18:53;2.75;;;2.55;;
52136;SDS011;69622;49.570;10.986;2023-06-14T17:21:54;2.58;;;2.38;;
52136;SDS011;69622;49.570;10.986;2023-06-14T17:24:56;2.70;;;2.40;;
52136;SDS011;69622;49.570;10.986;2023-06-14T17:27:57;3.05;;;2.75;;
52136;SDS011;69622;49.570;10.986;2023-06-14T17:30:59;3.45;;;2.80;;
52136;SDS011;69622;49.570;10.986;2023-06-14T17:37:32;6.28;;;3.53;;
52136;SDS011;69622;49.570;10.986;2023-06-14T17:40:36;4.22;;;2.33;;
52136;SDS011;69622;49.570;10.986;2023-06-14T17:44:03;3.33;;;2.50;;
52136;SDS011;69622;49.570;10.986;2023-06-14T17:47:05;5.65;;;2.90;;
52136;SDS011;69622;49.570;10.986;2023-06-14T17:50:09;2.75;;;2.53;;
52136;SDS011;69622;49.570;10.986;2023-06-14T17:53:11;5.68;;;2.70;;
52136;SDS011;69622;49.570;10.986;2023-06-14T17:56:12;2.90;;;2.47;;
52136;SDS011;69622;49.570;10.986;2023-06-14T17:59:14;4.47;;;2.80;;
52136;SDS011;69622;49.570;10.986;2023-06-14T18:02:15;7.15;;;3.00;;
52136;SDS011;69622;49.570;10.986;2023-06-14T18:05:17;3.65;;;2.90;;
52136;SDS011;69622;49.570;10.986;2023-06-14T18:08:20;3.17;;;2.70;;
52136;SDS011;69622;49.570;10.986;2023-06-14T18:11:25;4.07;;;3.55;;
52136;SDS011;69622;49.570;10.986;2023-06-14T18:14:47;8.35;;;3.45;;
52136;SDS011;69622;49.570;10.986;2023-06-14T18:17:48;6.25;;;2.90;;